Santa Luzia, Brazil
Current Conditions -  °F | °C
As of 11:00 AM on Wednesday 26 Nov 2014 (Local Time) from SBCF Reporting Station
Rain Showers Rain Showers  
Wind Chill: 73°   Ceiling: 900
Heat Index: 73°   Visibility: 6mi
Dew Point: 66°   Wind: 13mph
Humidity: 78%   Direction: 350°N
Pressure: 30.03"   Gusts: NA
Location:  19.77°S, 43.85°W
Report Text: SBCF 261300Z 35011KT 9999 VCSH BKN009 BKN025 23/19 Q1017
Loading
Personal Weather Stations






























Interactive Weather Map New forecast layout! Learn more

10-Day Weather Forecast

Advertisements
Track Severe Weather on mobile